createdAt,value
2022-12-12T00:02:03.287Z,95752.97
2022-12-12T00:05:00.123Z,95760.81
2022-12-12T00:07:56.999Z,95756.34
2022-12-12T00:10:53.884Z,95765.31
2022-12-12T00:13:51.223Z,95763.22
2022-12-12T00:16:48.064Z,95763.38
2022-12-12T00:19:44.906Z,95761.00
2022-12-12T00:22:41.771Z,95768.19
2022-12-12T00:25:38.636Z,95770.22
2022-12-12T00:28:35.884Z,95769.66
2022-12-12T00:31:32.866Z,95774.84
2022-12-12T00:34:29.757Z,95777.88
2022-12-12T00:37:26.626Z,95772.69
2022-12-12T00:40:23.460Z,95775.00
2022-12-12T00:43:20.371Z,95777.25
2022-12-12T00:46:24.412Z,95786.28
2022-12-12T00:49:21.395Z,95784.25
2022-12-12T00:52:18.234Z,95782.66
2022-12-12T00:55:15.305Z,95781.28
2022-12-12T00:58:12.291Z,95778.91
2022-12-12T01:01:17.129Z,95781.69
2022-12-12T01:04:14.304Z,95788.47
2022-12-12T01:07:11.307Z,95795.19
2022-12-12T01:10:09.746Z,95790.78
2022-12-12T01:13:06.575Z,95795.19
2022-12-12T01:16:05.419Z,95794.22
2022-12-12T01:19:02.323Z,95803.09
2022-12-12T01:21:59.162Z,95798.50
2022-12-12T01:24:57.026Z,95800.19
2022-12-12T01:27:53.948Z,95799.59
2022-12-12T01:30:50.958Z,95809.47
2022-12-12T01:33:48.068Z,95809.19
2022-12-12T01:36:45.030Z,95804.22
2022-12-12T01:39:41.872Z,95809.34
2022-12-12T01:42:38.726Z,95816.38
2022-12-12T01:45:57.319Z,95819.81
2022-12-12T01:49:19.139Z,95813.59
2022-12-12T01:52:22.079Z,95813.88
2022-12-12T01:55:23.063Z,95807.09
2022-12-12T01:58:20.272Z,95813.25
2022-12-12T02:01:18.040Z,95811.09
2022-12-12T02:04:15.527Z,95809.81
2022-12-12T02:07:12.721Z,95819.50
2022-12-12T02:10:09.685Z,95809.69
2022-12-12T02:13:15.006Z,95815.19
2022-12-12T02:16:39.029Z,95806.84
2022-12-12T02:20:26.839Z,95814.69
2022-12-12T02:24:16.119Z,95809.06
2022-12-12T02:27:33.686Z,95811.94
2022-12-12T02:31:11.581Z,95815.72
2022-12-12T02:34:53.650Z,95811.59
2022-12-12T02:38:11.647Z,95809.00
2022-12-12T02:41:43.515Z,95809.03
2022-12-12T02:45:20.555Z,95817.16
2022-12-12T02:48:29.456Z,95815.06
2022-12-12T02:51:28.365Z,95810.69
2022-12-12T02:54:25.758Z,95811.94
2022-12-12T02:57:25.652Z,95823.94
2022-12-12T03:00:22.740Z,95822.22
2022-12-12T03:03:53.406Z,95826.72
2022-12-12T03:07:28.793Z,95828.47
2022-12-12T03:10:46.471Z,95821.50
2022-12-12T03:14:08.748Z,95824.78
2022-12-12T03:17:38.610Z,95828.25
2022-12-12T03:21:21.398Z,95821.94
2022-12-12T03:24:33.129Z,95827.03
2022-12-12T03:27:41.018Z,95823.00
2022-12-12T03:30:47.153Z,95823.47
2022-12-12T03:34:03.248Z,95827.47
2022-12-12T03:37:31.205Z,95825.50
2022-12-12T03:40:44.873Z,95825.03
2022-12-12T03:44:14.247Z,95834.94
2022-12-12T03:47:19.012Z,95832.13
2022-12-12T03:50:27.420Z,95836.03
2022-12-12T03:53:40.741Z,95830.25
2022-12-12T03:56:57.138Z,95833.91
2022-12-12T04:00:03.879Z,95833.66
2022-12-12T04:03:25.986Z,95837.94
2022-12-12T04:06:34.668Z,95833.53
2022-12-12T04:09:50.192Z,95827.97
2022-12-12T04:13:13.654Z,95836.25
2022-12-12T04:16:18.956Z,95840.97
2022-12-12T04:19:50.316Z,95852.16
2022-12-12T04:23:18.181Z,95840.59
2022-12-12T04:26:39.253Z,95842.69
2022-12-12T04:29:50.903Z,95856.66
2022-12-12T04:33:13.730Z,95847.56
2022-12-12T04:36:14.856Z,95839.50
2022-12-12T04:39:16.236Z,95851.09
2022-12-12T04:42:18.547Z,95851.13
2022-12-12T04:45:24.305Z,95851.53
2022-12-12T04:48:29.811Z,95857.09
2022-12-12T04:51:42.386Z,95853.34
2022-12-12T04:54:49.660Z,95864.53
2022-12-12T04:57:50.501Z,95862.13
2022-12-12T05:01:15.732Z,95874.53
2022-12-12T05:04:42.395Z,95866.16
2022-12-12T05:07:50.394Z,95878.91
2022-12-12T05:10:54.129Z,95887.91
2022-12-12T05:13:51.076Z,95883.72
2022-12-12T05:16:54.351Z,95889.91
2022-12-12T05:19:51.242Z,95884.94
2022-12-12T05:22:48.532Z,95882.13
2022-12-12T05:25:45.757Z,95886.31
2022-12-12T05:28:42.658Z,95877.13
2022-12-12T05:31:39.969Z,95884.72
2022-12-12T05:34:36.865Z,95885.91
2022-12-12T05:37:33.834Z,95895.06
2022-12-12T05:40:30.884Z,95899.09
2022-12-12T05:43:28.044Z,95899.88
2022-12-12T05:46:25.095Z,95897.69
2022-12-12T05:49:22.202Z,95901.06
2022-12-12T05:52:19.434Z,95907.84
2022-12-12T05:55:16.554Z,95900.06
2022-12-12T05:58:13.447Z,95910.66
2022-12-12T06:01:10.787Z,95907.06
2022-12-12T06:04:07.976Z,95898.69
2022-12-12T06:07:05.259Z,95920.78
2022-12-12T06:10:02.115Z,95914.97
2022-12-12T06:12:58.998Z,95911.19
2022-12-12T06:15:55.965Z,95915.19
2022-12-12T06:18:54.927Z,95923.00
2022-12-12T06:21:51.991Z,95917.00
2022-12-12T06:24:48.960Z,95918.00
2022-12-12T06:27:45.850Z,95913.00
2022-12-12T06:30:42.728Z,95910.63
2022-12-12T06:33:42.066Z,95917.78
2022-12-12T06:36:39.353Z,95916.94
2022-12-12T06:39:37.793Z,95912.97
2022-12-12T06:42:34.668Z,95921.53
2022-12-12T06:45:31.518Z,95920.94
2022-12-12T06:48:28.969Z,95935.72
2022-12-12T06:51:29.779Z,95931.75
2022-12-12T06:54:26.739Z,95928.31
2022-12-12T06:57:24.055Z,95932.06
2022-12-12T07:00:21.424Z,95938.72
2022-12-12T07:03:18.570Z,95941.09
2022-12-12T07:06:17.523Z,95938.69
2022-12-12T07:09:14.504Z,95942.69
2022-12-12T07:12:11.711Z,95945.72
2022-12-12T07:15:08.902Z,95949.09
2022-12-12T07:18:06.305Z,95961.47
2022-12-12T07:21:08.734Z,95951.13
2022-12-12T07:24:05.820Z,95956.72
2022-12-12T07:27:02.997Z,95956.31
2022-12-12T07:29:59.840Z,95967.72
2022-12-12T07:32:56.769Z,95948.13
2022-12-12T07:35:59.863Z,95951.56
2022-12-12T07:38:57.215Z,95954.97
2022-12-12T07:41:54.365Z,95958.78
2022-12-12T07:44:51.273Z,95964.00
2022-12-12T07:47:48.145Z,95965.78
2022-12-12T07:50:45.527Z,95974.16
2022-12-12T07:53:42.647Z,95971.00
2022-12-12T07:56:39.528Z,95969.00
2022-12-12T07:59:36.438Z,95972.78
2022-12-12T08:02:33.336Z,95966.78
2022-12-12T08:05:30.771Z,95985.75
2022-12-12T08:08:27.648Z,95974.97
2022-12-12T08:11:26.231Z,95974.75
2022-12-12T08:14:23.311Z,95980.13
2022-12-12T08:17:20.262Z,95982.16
2022-12-12T08:20:17.440Z,95976.56
2022-12-12T08:23:14.417Z,95976.56
2022-12-12T08:26:15.390Z,95981.16
2022-12-12T08:29:12.379Z,95984.97
2022-12-12T08:32:09.281Z,95993.97
2022-12-12T08:35:06.887Z,95989.75
2022-12-12T08:38:04.648Z,95987.97
2022-12-12T08:41:03.670Z,95996.19
2022-12-12T08:44:00.575Z,95999.50
2022-12-12T08:46:57.591Z,96006.56
2022-12-12T08:49:54.487Z,96005.72
2022-12-12T08:52:52.055Z,96005.13
2022-12-12T08:55:49.291Z,95997.28
2022-12-12T08:58:46.646Z,96007.50
2022-12-12T09:01:43.610Z,96001.94
2022-12-12T09:04:40.696Z,96005.88
2022-12-12T09:07:38.209Z,96003.69
2022-12-12T09:10:35.111Z,96000.31
2022-12-12T09:13:34.233Z,96006.50
2022-12-12T09:16:31.268Z,96015.06
2022-12-12T09:19:28.708Z,96028.69
2022-12-12T09:22:25.558Z,96017.88
2022-12-12T09:25:22.882Z,96020.88
2022-12-12T09:28:22.479Z,96022.44
2022-12-12T09:31:19.671Z,96016.00
2022-12-12T09:34:16.544Z,96018.19
2022-12-12T09:37:13.378Z,96013.34
2022-12-12T09:40:19.477Z,96015.91
2022-12-12T09:43:27.712Z,96011.78
2022-12-12T09:46:53.321Z,96011.81
2022-12-12T09:49:56.138Z,96018.81
2022-12-12T09:52:56.847Z,96020.84
2022-12-12T09:56:30.128Z,96016.44
2022-12-12T10:00:05.383Z,96016.53
2022-12-12T10:03:24.562Z,96017.13
2022-12-12T10:06:38.715Z,96009.06
2022-12-12T10:10:06.584Z,96012.66
2022-12-12T10:13:06.134Z,96007.88
2022-12-12T10:16:14.531Z,96010.16
2022-12-12T10:19:35.315Z,96009.03
2022-12-12T10:22:55.716Z,96009.63
2022-12-12T10:25:57.068Z,96018.63
2022-12-12T10:29:08.875Z,96010.19
2022-12-12T10:32:14.369Z,96005.84
2022-12-12T10:35:39.891Z,96002.09
2022-12-12T10:38:58.695Z,95995.13
2022-12-12T10:42:17.151Z,95999.13
2022-12-12T10:45:35.467Z,95990.59
2022-12-12T10:48:32.811Z,95990.63
2022-12-12T10:51:30.649Z,96001.16
2022-12-12T10:54:29.147Z,95988.75
2022-12-12T10:57:29.569Z,95989.97
2022-12-12T11:00:30.995Z,95984.03
2022-12-12T11:03:44.796Z,95988.94
2022-12-12T11:06:50.775Z,95985.09
2022-12-12T11:09:47.624Z,95977.13
2022-12-12T11:12:45.060Z,95980.50
2022-12-12T11:16:00.049Z,95978.75
2022-12-12T11:19:18.791Z,95981.84
2022-12-12T11:22:16.629Z,95977.19
2022-12-12T11:25:30.391Z,95982.41
2022-12-12T11:28:35.179Z,95975.94
2022-12-12T11:31:35.362Z,95971.81
2022-12-12T11:34:35.737Z,95976.13
2022-12-12T11:37:48.229Z,95974.13
2022-12-12T11:40:46.916Z,95970.50
2022-12-12T11:43:59.915Z,95977.09
2022-12-12T11:46:59.160Z,95979.84
2022-12-12T11:49:58.301Z,95979.78
2022-12-12T11:53:01.606Z,95971.88
2022-12-12T11:56:19.172Z,95970.34
2022-12-12T11:59:37.245Z,95968.75
2022-12-12T12:03:19.807Z,95958.28
2022-12-12T12:06:53.878Z,95953.19
2022-12-12T12:10:24.392Z,95952.16
2022-12-12T12:13:38.826Z,95960.19
2022-12-12T12:16:54.103Z,95956.22
2022-12-12T12:20:39.183Z,95953.13
2022-12-12T12:24:24.348Z,95948.91
2022-12-12T12:27:27.720Z,95954.88
2022-12-12T12:30:50.350Z,95943.44
2022-12-12T12:34:12.064Z,95941.75
2022-12-12T12:37:11.540Z,95940.63
2022-12-12T12:40:42.594Z,95938.50
2022-12-12T12:44:19.262Z,95944.69
2022-12-12T12:47:31.118Z,95934.91
2022-12-12T12:50:34.966Z,95938.47
2022-12-12T12:54:07.880Z,95942.75
2022-12-12T12:57:25.854Z,95937.28
2022-12-12T13:00:27.285Z,95946.22
2022-12-12T13:03:32.907Z,95937.69
2022-12-12T13:07:05.471Z,95937.63
2022-12-12T13:10:28.123Z,95952.88
2022-12-12T13:13:34.215Z,95952.69
2022-12-12T13:16:33.454Z,95950.13
2022-12-12T13:19:42.823Z,95945.31
2022-12-12T13:23:37.393Z,95948.03
2022-12-12T13:27:12.518Z,95946.47
2022-12-12T13:30:47.540Z,95944.19
2022-12-12T13:34:11.657Z,95950.00
2022-12-12T13:37:09.018Z,95946.81
2022-12-12T13:40:07.877Z,95949.56
2022-12-12T13:43:10.293Z,95957.28
2022-12-12T13:46:26.530Z,95960.25
2022-12-12T13:49:37.965Z,95965.22
2022-12-12T13:52:42.343Z,95962.97
2022-12-12T13:55:39.364Z,95969.78
2022-12-12T13:58:36.282Z,95967.97
2022-12-12T14:01:43.505Z,95965.13
2022-12-12T14:04:40.507Z,95972.50
2022-12-12T14:07:38.293Z,95974.59
2022-12-12T14:10:49.833Z,95976.03
2022-12-12T14:13:50.704Z,95977.16
2022-12-12T14:16:56.893Z,95984.09
2022-12-12T14:19:56.748Z,95987.97
2022-12-12T14:23:13.741Z,95990.69
2022-12-12T14:26:45.665Z,95980.25
2022-12-12T14:29:45.332Z,95984.44
2022-12-12T14:33:10.134Z,95987.09
2022-12-12T14:36:53.730Z,95994.75
2022-12-12T14:40:12.700Z,95993.59
2022-12-12T14:43:23.038Z,95998.03
2022-12-12T14:46:20.198Z,95993.44
2022-12-12T14:49:18.554Z,95990.53
2022-12-12T14:52:23.587Z,95993.81
2022-12-12T14:55:20.821Z,95993.22
2022-12-12T14:58:23.787Z,96003.34
2022-12-12T15:01:31.711Z,96010.06
2022-12-12T15:04:38.353Z,96006.34
2022-12-12T15:07:40.880Z,96013.81
2022-12-12T15:10:37.788Z,96009.75
2022-12-12T15:13:35.139Z,96005.91
2022-12-12T15:16:53.836Z,96000.63
2022-12-12T15:20:07.768Z,96011.63
2022-12-12T15:23:07.510Z,96006.09
2022-12-12T15:26:05.742Z,96013.84
2022-12-12T15:29:02.670Z,96008.81
2022-12-12T15:32:14.196Z,96020.03
2022-12-12T15:35:23.246Z,96009.97
2022-12-12T15:38:20.712Z,96016.44
2022-12-12T15:41:21.211Z,96008.06
2022-12-12T15:44:20.619Z,96015.25
2022-12-12T15:47:19.059Z,96016.75
2022-12-12T15:50:20.866Z,96021.16
2022-12-12T15:53:31.586Z,96014.59
2022-12-12T15:56:29.246Z,96019.22
2022-12-12T15:59:32.687Z,96011.53
2022-12-12T16:02:33.426Z,96017.44
2022-12-12T16:05:37.423Z,96022.19
2022-12-12T16:09:12.195Z,96025.97
2022-12-12T16:12:10.414Z,96020.97
2022-12-12T16:15:27.530Z,96030.72
2022-12-12T16:18:24.856Z,96023.28
2022-12-12T16:21:21.748Z,96017.28
2022-12-12T16:24:26.462Z,96026.28
2022-12-12T16:27:23.585Z,96025.88
2022-12-12T16:30:20.503Z,96026.34
2022-12-12T16:33:35.206Z,96035.44
2022-12-12T16:36:35.657Z,96028.97
2022-12-12T16:39:36.891Z,96037.22
2022-12-12T16:42:36.202Z,96044.38
2022-12-12T16:45:33.152Z,96044.81
2022-12-12T16:48:37.740Z,96044.84
2022-12-12T16:51:35.771Z,96046.84
2022-12-12T16:54:32.727Z,96055.31
2022-12-12T16:57:29.534Z,96053.06
2022-12-12T17:00:26.401Z,96058.38
2022-12-12T17:03:23.934Z,96055.13
2022-12-12T17:06:27.305Z,96053.75
2022-12-12T17:09:29.863Z,96070.75
2022-12-12T17:12:27.055Z,96065.59
2022-12-12T17:15:30.015Z,96073.81
2022-12-12T17:18:27.300Z,96074.56
2022-12-12T17:21:25.299Z,96079.97
2022-12-12T17:24:22.457Z,96076.56
2022-12-12T17:27:19.384Z,96079.78
2022-12-12T17:30:17.263Z,96073.97
2022-12-12T17:33:20.050Z,96076.59
2022-12-12T17:36:17.016Z,96069.94
2022-12-12T17:39:15.103Z,96073.97
2022-12-12T17:42:12.222Z,96072.97
2022-12-12T17:45:11.124Z,96070.97
2022-12-12T17:48:07.950Z,96088.38
2022-12-12T17:51:06.818Z,96088.97
2022-12-12T17:54:03.983Z,96097.19
2022-12-12T17:57:00.862Z,96098.34
2022-12-12T17:59:58.314Z,96104.56
2022-12-12T18:02:55.152Z,96110.00
2022-12-12T18:05:52.112Z,96099.16
2022-12-12T18:08:50.647Z,96102.91
2022-12-12T18:11:47.554Z,96097.13
2022-12-12T18:14:44.559Z,96096.19
2022-12-12T18:17:41.399Z,96106.44
2022-12-12T18:20:39.846Z,96091.31
2022-12-12T18:23:37.109Z,96091.69
2022-12-12T18:26:34.061Z,96088.75
2022-12-12T18:29:32.209Z,96079.53
2022-12-12T18:32:29.371Z,96092.16
2022-12-12T18:35:29.084Z,96098.16
2022-12-12T18:38:26.009Z,96102.34
2022-12-12T18:41:23.318Z,96089.75
2022-12-12T18:44:20.729Z,96088.94
2022-12-12T18:47:17.887Z,96076.16
2022-12-12T18:50:14.955Z,96079.97
2022-12-12T18:53:12.004Z,96076.38
2022-12-12T18:56:15.823Z,96076.59
2022-12-12T18:59:13.111Z,96078.34
2022-12-12T19:02:14.033Z,96079.59
2022-12-12T19:05:13.517Z,96083.53
2022-12-12T19:08:11.340Z,96090.66
2022-12-12T19:11:09.841Z,96091.38
2022-12-12T19:14:08.348Z,96097.03
2022-12-12T19:17:05.462Z,96099.66
2022-12-12T19:20:02.469Z,96095.06
2022-12-12T19:22:59.445Z,96099.88
2022-12-12T19:25:56.552Z,96093.47
2022-12-12T19:29:00.642Z,96096.69
2022-12-12T19:31:58.776Z,96092.69
2022-12-12T19:34:55.903Z,96096.28
2022-12-12T19:37:52.901Z,96098.09
2022-12-12T19:40:49.893Z,96106.69
2022-12-12T19:43:49.257Z,96104.09
2022-12-12T19:46:46.321Z,96107.88
2022-12-12T19:49:43.260Z,96109.69
2022-12-12T19:52:40.169Z,96102.69
2022-12-12T19:55:37.027Z,96103.50
2022-12-12T19:58:38.576Z,96102.88
2022-12-12T20:01:37.189Z,96104.06
2022-12-12T20:04:34.148Z,96103.47
2022-12-12T20:07:31.560Z,96096.88
2022-12-12T20:10:28.759Z,96090.09
2022-12-12T20:13:25.717Z,96082.06
2022-12-12T20:16:26.521Z,96086.25
2022-12-12T20:19:27.262Z,96097.97
2022-12-12T20:22:24.200Z,96088.44
2022-12-12T20:25:21.087Z,96098.41
2022-12-12T20:28:18.365Z,96099.03
2022-12-12T20:31:23.187Z,96097.59
2022-12-12T20:34:24.704Z,96113.16
2022-12-12T20:37:21.976Z,96101.94
2022-12-12T20:40:18.894Z,96116.09
2022-12-12T20:43:15.743Z,96112.13
2022-12-12T20:46:19.494Z,96118.72
2022-12-12T20:49:19.807Z,96123.72
2022-12-12T20:52:17.172Z,96125.25
2022-12-12T20:55:14.224Z,96110.53
2022-12-12T20:58:11.205Z,96115.41
2022-12-12T21:01:18.632Z,96111.78
2022-12-12T21:04:15.957Z,96123.13
2022-12-12T21:07:12.872Z,96117.38
2022-12-12T21:10:09.993Z,96122.66
2022-12-12T21:13:06.936Z,96134.94
2022-12-12T21:16:15.672Z,96134.19
2022-12-12T21:19:14.220Z,96127.72
2022-12-12T21:22:11.805Z,96124.25
2022-12-12T21:25:08.884Z,96130.00
2022-12-12T21:28:06.304Z,96126.16
2022-12-12T21:31:06.940Z,96133.09
2022-12-12T21:34:05.663Z,96137.03
2022-12-12T21:37:02.663Z,96131.78
2022-12-12T21:39:59.706Z,96116.97
2022-12-12T21:42:56.661Z,96122.31
2022-12-12T21:45:53.587Z,96126.34
2022-12-12T21:49:12.297Z,96122.19
2022-12-12T21:52:13.971Z,96117.13
2022-12-12T21:55:10.866Z,96117.19
2022-12-12T21:58:07.912Z,96125.34
2022-12-12T22:01:12.289Z,96128.19
2022-12-12T22:04:11.952Z,96128.94
2022-12-12T22:07:12.226Z,96117.91
2022-12-12T22:10:11.239Z,96121.38
2022-12-12T22:13:08.844Z,96120.06
2022-12-12T22:16:10.952Z,96118.84
2022-12-12T22:19:12.786Z,96115.72
2022-12-12T22:22:09.674Z,96108.41
2022-12-12T22:25:07.144Z,96102.19
2022-12-12T22:28:04.205Z,96105.44
2022-12-12T22:31:04.964Z,96111.09
2022-12-12T22:34:05.282Z,96099.75
2022-12-12T22:37:02.078Z,96107.34
2022-12-12T22:39:58.931Z,96099.69
2022-12-12T22:42:56.121Z,96103.50
2022-12-12T22:45:53.058Z,96096.72
2022-12-12T22:48:49.970Z,96097.34
2022-12-12T22:51:48.962Z,96097.34
2022-12-12T22:54:45.919Z,96103.69
2022-12-12T22:57:45.188Z,96103.44
2022-12-12T23:00:42.188Z,96104.56
2022-12-12T23:03:40.227Z,96106.69
2022-12-12T23:06:37.504Z,96100.69
2022-12-12T23:09:34.421Z,96085.69
2022-12-12T23:12:31.372Z,96091.41
2022-12-12T23:15:28.274Z,96084.44
2022-12-12T23:18:25.153Z,96083.66
2022-12-12T23:21:24.803Z,96094.13
2022-12-12T23:24:21.891Z,96090.22
2022-12-12T23:27:19.053Z,96090.34
2022-12-12T23:30:16.143Z,96083.16
2022-12-12T23:33:13.011Z,96078.84
2022-12-12T23:36:12.913Z,96086.19
2022-12-12T23:39:12.015Z,96084.34
2022-12-12T23:42:08.924Z,96088.72
2022-12-12T23:45:06.604Z,96081.63
2022-12-12T23:48:05.462Z,96089.28
2022-12-12T23:51:02.484Z,96093.47
2022-12-12T23:54:01.720Z,96093.81
2022-12-12T23:56:59.442Z,96087.78
2022-12-12T23:59:56.321Z,96095.56
